createdAt,value
2022-10-11T00:01:51.897Z,101074.81
2022-10-11T00:04:19.330Z,101081.00
2022-10-11T00:06:47.321Z,101085.47
2022-10-11T00:09:15.955Z,101084.78
2022-10-11T00:11:43.487Z,101010.75
2022-10-11T00:14:12.254Z,101091.88
2022-10-11T00:16:42.120Z,101093.69
2022-10-11T00:19:09.538Z,101088.50
2022-10-11T00:21:37.590Z,101084.44
2022-10-11T00:24:05.785Z,101103.56
2022-10-11T00:26:33.232Z,101100.97
2022-10-11T00:29:00.687Z,101038.22
2022-10-11T00:31:34.720Z,101106.31
2022-10-11T00:34:03.030Z,101103.78
2022-10-11T00:36:30.469Z,101110.91
2022-10-11T00:38:57.890Z,101122.34
2022-10-11T00:41:25.329Z,101119.84
2022-10-11T00:44:09.011Z,101117.25
2022-10-11T00:46:37.786Z,101112.00
2022-10-11T00:49:06.742Z,101075.91
2022-10-11T00:51:41.234Z,101113.88
2022-10-11T00:54:08.897Z,101121.94
2022-10-11T00:56:37.359Z,101122.88
2022-10-11T00:59:06.867Z,101121.13
2022-10-11T01:01:34.444Z,101120.38
2022-10-11T01:04:03.483Z,101086.91
2022-10-11T01:06:30.939Z,101110.03
2022-10-11T01:08:58.379Z,101129.28
2022-10-11T01:11:26.654Z,101101.72
2022-10-11T01:14:09.203Z,101120.53
2022-10-11T01:16:37.377Z,101116.66
2022-10-11T01:19:11.286Z,101126.91
2022-10-11T01:21:40.642Z,101123.50
2022-10-11T01:24:33.903Z,101124.25
2022-10-11T01:27:25.443Z,101072.91
2022-10-11T01:29:57.010Z,101139.53
2022-10-11T01:32:28.293Z,101138.66
2022-10-11T01:34:56.983Z,101145.84
2022-10-11T01:37:26.784Z,101083.75
2022-10-11T01:39:57.002Z,101109.75
2022-10-11T01:42:24.289Z,101147.00
2022-10-11T01:44:51.747Z,101133.03
2022-10-11T01:47:20.386Z,101091.97
2022-10-11T01:49:55.463Z,101147.94
2022-10-11T01:52:22.907Z,101147.13
2022-10-11T01:55:09.230Z,101111.78
2022-10-11T01:57:57.670Z,101157.75
2022-10-11T02:00:25.823Z,101154.28
2022-10-11T02:03:00.395Z,101155.38
2022-10-11T02:05:31.052Z,101154.44
2022-10-11T02:08:00.602Z,101156.34
2022-10-11T02:10:31.566Z,101154.66
2022-10-11T02:13:01.334Z,101158.13
2022-10-11T02:15:29.458Z,101163.59
2022-10-11T02:17:57.841Z,101162.03
2022-10-11T02:20:26.220Z,101121.56
2022-10-11T02:22:57.645Z,101151.69
2022-10-11T02:25:25.927Z,101160.34
2022-10-11T02:27:54.785Z,101157.75
2022-10-11T02:30:22.268Z,101168.63
2022-10-11T02:32:49.696Z,101162.31
2022-10-11T02:35:17.149Z,101163.16
2022-10-11T02:37:47.526Z,101166.81
2022-10-11T02:40:17.350Z,101165.03
2022-10-11T02:42:46.679Z,101157.34
2022-10-11T02:45:15.706Z,101147.28
2022-10-11T02:47:43.165Z,101171.56
2022-10-11T02:50:11.750Z,101170.72
2022-10-11T02:52:39.209Z,101170.72
2022-10-11T02:55:07.787Z,101170.94
2022-10-11T02:57:36.582Z,101121.94
2022-10-11T03:00:04.506Z,101177.09
2022-10-11T03:02:31.941Z,101174.44
2022-10-11T03:04:59.697Z,101186.09
2022-10-11T03:07:27.129Z,101117.25
2022-10-11T03:09:54.572Z,101185.28
2022-10-11T03:12:22.001Z,101197.88
2022-10-11T03:14:50.771Z,101202.25
2022-10-11T03:17:35.654Z,101207.75
2022-10-11T03:20:04.704Z,101203.31
2022-10-11T03:22:32.154Z,101200.59
2022-10-11T03:25:03.595Z,101208.63
2022-10-11T03:27:31.720Z,101206.03
2022-10-11T03:30:00.586Z,101222.06
2022-10-11T03:32:28.156Z,101212.34
2022-10-11T03:34:55.593Z,101222.00
2022-10-11T03:37:23.039Z,101221.19
2022-10-11T03:39:50.525Z,101224.00
2022-10-11T03:42:17.985Z,101154.19
2022-10-11T03:44:45.431Z,101223.25
2022-10-11T03:47:14.215Z,101227.72
2022-10-11T03:49:43.799Z,101224.53
2022-10-11T03:52:11.478Z,101228.78
2022-10-11T03:54:39.082Z,101195.25
2022-10-11T03:57:07.052Z,101235.03
2022-10-11T03:59:34.480Z,101242.06
2022-10-11T04:02:02.022Z,101232.31
2022-10-11T04:04:30.842Z,101239.47
2022-10-11T04:06:58.285Z,101253.69
2022-10-11T04:09:25.724Z,101244.91
2022-10-11T04:11:53.194Z,101248.50
2022-10-11T04:14:20.636Z,101254.78
2022-10-11T04:16:48.068Z,101261.00
2022-10-11T04:19:15.514Z,101254.91
2022-10-11T04:21:44.289Z,101253.97
2022-10-11T04:24:11.975Z,101260.22
2022-10-11T04:26:39.482Z,101259.28
2022-10-11T04:29:06.933Z,101260.28
2022-10-11T04:31:34.388Z,101264.66
2022-10-11T04:34:01.979Z,101265.59
2022-10-11T04:36:30.078Z,101266.56
2022-10-11T04:38:58.829Z,101257.97
2022-10-11T04:41:26.292Z,101272.97
2022-10-11T04:43:53.745Z,101273.84
2022-10-11T04:46:21.456Z,101279.16
2022-10-11T04:48:48.905Z,101281.88
2022-10-11T04:51:16.374Z,101276.69
2022-10-11T04:53:43.810Z,101278.34
2022-10-11T04:56:12.598Z,101283.72
2022-10-11T04:58:41.326Z,101223.41
2022-10-11T05:01:08.802Z,101281.06
2022-10-11T05:03:36.422Z,101289.97
2022-10-11T05:06:05.892Z,101199.16
2022-10-11T05:08:33.853Z,101297.00
2022-10-11T05:11:02.130Z,101246.97
2022-10-11T05:13:31.061Z,101299.59
2022-10-11T05:15:58.748Z,101250.97
2022-10-11T05:18:26.265Z,101302.13
2022-10-11T05:20:59.697Z,101301.91
2022-10-11T05:23:27.169Z,101300.19
2022-10-11T05:25:54.636Z,101308.09
2022-10-11T05:28:22.107Z,101305.38
2022-10-11T05:30:50.881Z,101308.81
2022-10-11T05:33:18.322Z,101307.09
2022-10-11T05:35:45.787Z,101311.53
2022-10-11T05:38:13.264Z,101309.75
2022-10-11T05:40:40.919Z,101318.59
2022-10-11T05:43:08.467Z,101274.00
2022-10-11T05:45:36.816Z,101251.28
2022-10-11T05:48:05.919Z,101330.13
2022-10-11T05:50:33.389Z,101330.34
2022-10-11T05:53:00.888Z,101293.78
2022-10-11T05:55:28.372Z,101340.84
2022-10-11T05:57:55.972Z,101339.25
2022-10-11T06:00:23.538Z,101310.94
2022-10-11T06:02:50.994Z,101342.03
2022-10-11T06:05:19.773Z,101341.34
2022-10-11T06:07:47.233Z,101348.41
2022-10-11T06:10:14.663Z,101348.22
2022-10-11T06:12:42.122Z,101295.72
2022-10-11T06:15:10.796Z,101350.88
2022-10-11T06:17:38.284Z,101344.94
2022-10-11T06:20:06.587Z,101350.75
2022-10-11T06:22:35.376Z,101362.75
2022-10-11T06:25:02.937Z,101337.66
2022-10-11T06:27:30.384Z,101361.13
2022-10-11T06:29:57.822Z,101358.91
2022-10-11T06:32:25.279Z,101367.88
2022-10-11T06:34:52.735Z,101371.34
2022-10-11T06:37:20.412Z,101353.34
2022-10-11T06:39:49.859Z,101378.50
2022-10-11T06:42:17.430Z,101363.28
2022-10-11T06:44:44.862Z,101386.63
2022-10-11T06:47:12.295Z,101395.47
2022-10-11T06:49:39.739Z,101368.59
2022-10-11T06:52:07.197Z,101341.25
2022-10-11T06:54:34.634Z,101384.28
2022-10-11T06:57:03.409Z,101398.25
2022-10-11T06:59:30.839Z,101397.31
2022-10-11T07:01:58.283Z,101405.16
2022-10-11T07:04:25.699Z,101405.91
2022-10-11T07:06:53.255Z,101406.81
2022-10-11T07:09:20.687Z,101400.59
2022-10-11T07:11:48.829Z,101406.69
2022-10-11T07:14:17.577Z,101416.47
2022-10-11T07:16:45.012Z,101418.94
2022-10-11T07:19:12.439Z,101420.38
2022-10-11T07:21:39.894Z,101418.41
2022-10-11T07:24:07.748Z,101365.69
2022-10-11T07:26:38.650Z,101418.66
2022-10-11T07:29:06.865Z,101415.81
2022-10-11T07:31:38.845Z,101428.97
2022-10-11T07:34:06.277Z,101425.84
2022-10-11T07:36:33.714Z,101433.84
2022-10-11T07:39:01.195Z,101444.09
2022-10-11T07:41:28.655Z,101403.09
2022-10-11T07:43:56.251Z,101446.00
2022-10-11T07:46:23.772Z,101438.81
2022-10-11T07:48:52.748Z,101437.94
2022-10-11T07:51:21.251Z,101444.84
2022-10-11T07:53:49.603Z,101377.31
2022-10-11T07:56:18.379Z,101441.69
2022-10-11T07:58:45.894Z,101442.44
2022-10-11T08:01:14.425Z,101451.06
2022-10-11T08:03:42.247Z,101445.59
2022-10-11T08:06:12.385Z,101450.06
2022-10-11T08:08:39.666Z,101450.34
2022-10-11T08:11:07.439Z,101405.25
2022-10-11T08:13:34.955Z,101457.53
2022-10-11T08:16:02.790Z,101457.53
2022-10-11T08:18:30.974Z,101461.13
2022-10-11T08:20:58.438Z,101459.28
2022-10-11T08:23:27.254Z,101462.78
2022-10-11T08:25:57.282Z,101465.50
2022-10-11T08:28:24.761Z,101455.88
2022-10-11T08:30:54.723Z,101461.41
2022-10-11T08:33:22.595Z,101467.75
2022-10-11T08:35:50.293Z,101468.59
2022-10-11T08:38:17.893Z,101464.16
2022-10-11T08:40:50.630Z,101464.88
2022-10-11T08:43:25.865Z,101464.75
2022-10-11T08:45:54.425Z,101451.44
2022-10-11T08:48:32.957Z,101417.00
2022-10-11T08:51:00.400Z,101461.50
2022-10-11T08:53:29.303Z,101460.91
2022-10-11T08:55:58.104Z,101420.53
2022-10-11T08:58:31.585Z,101384.19
2022-10-11T09:00:59.047Z,101462.81
2022-10-11T09:03:30.635Z,101418.75
2022-10-11T09:06:04.405Z,101398.75
2022-10-11T09:08:36.318Z,101469.28
2022-10-11T09:11:07.481Z,101455.41
2022-10-11T09:13:43.710Z,101433.50
2022-10-11T09:16:16.022Z,101428.19
2022-10-11T09:18:49.872Z,101432.72
2022-10-11T09:21:21.379Z,101474.25
2022-10-11T09:24:04.209Z,101451.44
2022-10-11T09:26:35.773Z,101469.25
2022-10-11T09:29:06.867Z,101414.50
2022-10-11T09:31:34.632Z,101474.63
2022-10-11T09:34:06.584Z,101473.47
2022-10-11T09:36:37.071Z,101463.66
2022-10-11T09:39:08.214Z,101471.75
2022-10-11T09:41:39.685Z,101433.72
2022-10-11T09:44:07.222Z,101472.34
2022-10-11T09:46:37.108Z,101472.09
2022-10-11T09:49:05.087Z,101409.00
2022-10-11T09:51:32.610Z,101441.66
2022-10-11T09:54:00.806Z,101418.59
2022-10-11T09:56:28.959Z,101471.88
2022-10-11T09:59:19.326Z,101469.97
2022-10-11T10:01:46.807Z,101463.63
2022-10-11T10:04:16.808Z,101457.00
2022-10-11T10:06:44.256Z,101463.03
2022-10-11T10:11:30.860Z,101464.19
2022-10-11T10:13:58.300Z,101461.19
2022-10-11T10:16:29.410Z,101409.09
2022-10-11T10:18:57.738Z,101465.72
2022-10-11T10:21:28.097Z,101473.47
2022-10-11T10:23:55.662Z,101468.84
2022-10-11T10:26:23.886Z,101466.88
2022-10-11T10:28:59.601Z,101461.44
2022-10-11T10:31:40.181Z,101435.50
2022-10-11T10:34:17.682Z,101456.53
2022-10-11T10:36:46.810Z,101441.09
2022-10-11T10:39:16.554Z,101458.31
2022-10-11T10:41:44.015Z,101467.97
2022-10-11T10:44:11.454Z,101461.88
2022-10-11T10:46:49.788Z,101458.56
2022-10-11T10:49:53.067Z,101462.13
2022-10-11T10:52:21.298Z,101461.41
2022-10-11T10:54:51.680Z,101465.03
2022-10-11T10:57:21.365Z,101457.88
2022-10-11T10:59:55.559Z,101458.81
2022-10-11T11:02:40.302Z,101458.81
2022-10-11T11:05:18.697Z,101457.88
2022-10-11T11:07:47.922Z,101439.06
2022-10-11T11:10:17.446Z,101455.75
2022-10-11T11:12:46.911Z,101455.81
2022-10-11T11:15:16.653Z,101463.78
2022-10-11T11:17:52.606Z,101424.63
2022-10-11T11:20:28.784Z,101463.66
2022-10-11T11:22:59.344Z,101464.19
2022-10-11T11:25:31.755Z,101453.03
2022-10-11T11:28:09.273Z,101463.38
2022-10-11T11:30:40.944Z,101467.31
2022-10-11T11:33:13.124Z,101467.03
2022-10-11T11:35:42.628Z,101422.28
2022-10-11T11:38:12.482Z,101463.75
2022-10-11T11:40:40.575Z,101456.28
2022-10-11T11:43:08.813Z,101413.50
2022-10-11T11:45:42.498Z,101465.72
2022-10-11T11:48:14.955Z,101465.09
2022-10-11T11:50:44.892Z,101455.72
2022-10-11T11:53:14.672Z,101451.06
2022-10-11T11:55:44.293Z,101443.22
2022-10-11T11:58:25.828Z,101455.84
2022-10-11T12:00:56.446Z,101454.72
2022-10-11T12:03:27.702Z,101454.63
2022-10-11T12:06:20.781Z,101451.78
2022-10-11T12:08:49.062Z,101445.50
2022-10-11T12:11:20.417Z,101442.63
2022-10-11T12:13:47.971Z,101444.34
2022-10-11T12:16:16.204Z,101436.44
2022-10-11T12:18:53.273Z,101445.78
2022-10-11T12:21:23.235Z,101435.94
2022-10-11T12:23:51.343Z,101368.63
2022-10-11T12:26:39.446Z,101407.59
2022-10-11T12:29:42.467Z,101432.19
2022-10-11T12:32:49.731Z,101440.13
2022-10-11T12:36:05.597Z,101437.44
2022-10-11T12:38:39.591Z,101432.19
2022-10-11T12:41:41.125Z,101431.25
2022-10-11T12:44:08.940Z,101328.34
2022-10-11T12:46:41.327Z,101426.78
2022-10-11T12:49:22.206Z,101410.91
2022-10-11T12:51:53.709Z,101414.69
2022-10-11T12:54:45.066Z,101427.31
2022-10-11T12:57:49.861Z,101423.09
2022-10-11T13:00:20.567Z,101412.09
2022-10-11T13:02:48.251Z,101406.16
2022-10-11T13:05:22.050Z,101397.84
2022-10-11T13:07:49.781Z,101367.13
2022-10-11T13:10:20.950Z,101401.78
2022-10-11T13:12:48.506Z,101360.75
2022-10-11T13:15:16.599Z,101404.47
2022-10-11T13:17:44.060Z,101389.72
2022-10-11T13:20:17.926Z,101408.38
2022-10-11T13:22:45.943Z,101407.25
2022-10-11T13:25:16.297Z,101306.06
2022-10-11T13:27:45.138Z,101405.34
2022-10-11T13:30:17.157Z,101400.34
2022-10-11T13:32:44.605Z,101397.84
2022-10-11T13:35:19.782Z,101372.47
2022-10-11T13:37:49.887Z,101341.00
2022-10-11T13:40:18.274Z,101312.06
2022-10-11T13:42:48.413Z,101395.06
2022-10-11T13:45:16.314Z,101398.88
2022-10-11T13:47:43.746Z,101400.09
2022-10-11T13:50:19.413Z,101394.25
2022-10-11T13:52:55.286Z,101395.53
2022-10-11T13:55:33.445Z,101391.50
2022-10-11T13:58:03.396Z,101399.09
2022-10-11T14:00:33.085Z,101355.66
2022-10-11T14:03:02.025Z,101397.66
2022-10-11T14:05:31.992Z,101397.38
2022-10-11T14:08:00.716Z,101391.59
2022-10-11T14:10:28.161Z,101388.94
2022-10-11T14:13:00.348Z,101395.63
2022-10-11T14:15:30.785Z,101371.22
2022-10-11T14:17:58.536Z,101392.69
2022-10-11T14:20:33.216Z,101391.56
2022-10-11T14:23:00.868Z,101390.34
2022-10-11T14:25:28.314Z,101398.78
2022-10-11T14:27:55.765Z,101394.13
2022-10-11T14:30:26.246Z,101393.94
2022-10-11T14:32:58.554Z,101390.91
2022-10-11T14:35:26.975Z,101391.41
2022-10-11T14:37:54.590Z,101389.47
2022-10-11T14:40:23.207Z,101334.38
2022-10-11T14:42:50.813Z,101356.66
2022-10-11T14:45:18.608Z,101391.03
2022-10-11T14:47:46.099Z,101388.31
2022-10-11T14:50:29.076Z,101341.50
2022-10-11T14:52:56.788Z,101388.59
2022-10-11T14:55:24.401Z,101360.16
2022-10-11T14:57:51.850Z,101387.38
2022-10-11T15:00:20.872Z,101384.81
2022-10-11T15:02:48.310Z,101390.06
2022-10-11T15:05:15.822Z,101387.28
2022-10-11T15:07:44.576Z,101386.13
2022-10-11T15:10:17.980Z,101389.59
2022-10-11T15:12:45.433Z,101381.56
2022-10-11T15:15:19.351Z,101391.13
2022-10-11T15:17:48.073Z,101310.84
2022-10-11T15:20:19.843Z,101350.19
2022-10-11T15:22:48.809Z,101381.94
2022-10-11T15:25:16.453Z,101381.84
2022-10-11T15:27:44.189Z,101375.38
2022-10-11T15:30:18.524Z,101376.22
2022-10-11T15:32:46.049Z,101375.28
2022-10-11T15:35:13.580Z,101381.56
2022-10-11T15:37:41.071Z,101315.34
2022-10-11T15:40:21.079Z,101381.75
2022-10-11T15:42:48.540Z,101383.69
2022-10-11T15:45:16.016Z,101326.25
2022-10-11T15:47:43.485Z,101384.91
2022-10-11T15:50:18.778Z,101324.22
2022-10-11T15:52:46.254Z,101369.94
2022-10-11T15:55:13.690Z,101383.25
2022-10-11T15:57:42.456Z,101385.34
2022-10-11T16:00:10.818Z,101301.28
2022-10-11T16:02:38.244Z,101372.09
2022-10-11T16:05:06.398Z,101382.78
2022-10-11T16:07:33.874Z,101388.50
2022-10-11T16:10:01.303Z,101391.44
2022-10-11T16:12:28.765Z,101392.50
2022-10-11T16:15:00.665Z,101393.50
2022-10-11T16:17:28.122Z,101396.47
2022-10-11T16:19:57.350Z,101399.13
2022-10-11T16:22:24.795Z,101410.88
2022-10-11T16:24:52.226Z,101395.97
2022-10-11T16:27:19.766Z,101399.75
2022-10-11T16:29:47.228Z,101398.13
2022-10-11T16:32:15.966Z,101396.78
2022-10-11T16:34:43.412Z,101403.06
2022-10-11T16:37:10.835Z,101400.06
2022-10-11T16:39:38.285Z,101410.75
2022-10-11T16:42:05.790Z,101412.72
2022-10-11T16:44:33.440Z,101408.50
2022-10-11T16:47:01.335Z,101411.53
2022-10-11T16:49:30.106Z,101408.94
2022-10-11T16:51:59.070Z,101354.97
2022-10-11T16:54:27.971Z,101351.69
2022-10-11T16:56:55.405Z,101415.78
2022-10-11T16:59:22.844Z,101417.63
2022-10-11T17:01:50.379Z,101422.34
2022-10-11T17:04:17.822Z,101419.84
2022-10-11T17:06:46.608Z,101417.44
2022-10-11T17:09:14.431Z,101424.66
2022-10-11T17:11:41.921Z,101425.69
2022-10-11T17:14:09.444Z,101421.47
2022-10-11T17:16:36.869Z,101424.22
2022-10-11T17:19:04.342Z,101419.91
2022-10-11T17:21:31.807Z,101419.22
2022-10-11T17:24:00.582Z,101423.78
2022-10-11T17:26:28.039Z,101418.69
2022-10-11T17:28:55.704Z,101333.31
2022-10-11T17:31:23.315Z,101364.69
2022-10-11T17:33:50.824Z,101423.47
2022-10-11T17:36:21.717Z,101423.56
2022-10-11T17:38:49.219Z,101420.97
2022-10-11T17:41:18.000Z,101428.22
2022-10-11T17:43:45.427Z,101425.72
2022-10-11T17:46:13.308Z,101376.81
2022-10-11T17:48:40.821Z,101425.25
2022-10-11T17:51:09.323Z,101377.72
2022-10-11T17:53:36.980Z,101425.34
2022-10-11T17:56:05.936Z,101345.97
2022-10-11T17:58:34.757Z,101427.28
2022-10-11T18:01:03.637Z,101431.88
2022-10-11T18:03:31.497Z,101423.06
2022-10-11T18:05:58.971Z,101425.91
2022-10-11T18:08:26.421Z,101414.69
2022-10-11T18:10:53.871Z,101425.28
2022-10-11T18:13:21.293Z,101420.97
2022-10-11T18:15:53.484Z,101423.72
2022-10-11T18:18:21.143Z,101425.59
2022-10-11T18:20:48.771Z,101420.50
2022-10-11T18:23:17.627Z,101435.59
2022-10-11T18:25:45.068Z,101430.34
2022-10-11T18:28:12.725Z,101427.78
2022-10-11T18:30:42.600Z,101425.13
2022-10-11T18:33:11.374Z,101423.53
2022-10-11T18:35:38.788Z,101422.78
2022-10-11T18:38:06.392Z,101426.34
2022-10-11T18:40:36.757Z,101426.50
2022-10-11T18:43:04.275Z,101433.75
2022-10-11T18:45:31.778Z,101426.75
2022-10-11T18:47:59.214Z,101414.44
2022-10-11T18:50:28.023Z,101418.16
2022-10-11T18:52:55.512Z,101414.59
2022-10-11T18:55:22.956Z,101420.00
2022-10-11T18:57:50.516Z,101413.03
2022-10-11T19:00:39.488Z,101413.97
2022-10-11T19:03:05.729Z,101417.66
2022-10-11T19:05:34.481Z,101409.75
2022-10-11T19:08:01.913Z,101408.94
2022-10-11T19:10:29.374Z,101409.03
2022-10-11T19:12:56.822Z,101415.38
2022-10-11T19:15:28.606Z,101414.63
2022-10-11T19:17:56.406Z,101414.50
2022-10-11T19:20:23.831Z,101415.53
2022-10-11T19:22:52.729Z,101410.34
2022-10-11T19:25:20.172Z,101418.44
2022-10-11T19:27:47.614Z,101408.94
2022-10-11T19:30:15.123Z,101404.41
2022-10-11T19:32:42.553Z,101400.16
2022-10-11T19:35:10.800Z,101411.63
2022-10-11T19:37:38.244Z,101413.50
2022-10-11T19:40:08.676Z,101411.78
2022-10-11T19:42:36.118Z,101406.53
2022-10-11T19:45:03.705Z,101403.06
2022-10-11T19:47:31.545Z,101404.09
2022-10-11T19:49:59.125Z,101401.50
2022-10-11T19:52:26.666Z,101412.22
2022-10-11T19:54:54.080Z,101407.84
2022-10-11T19:57:22.865Z,101402.53
2022-10-11T19:59:50.365Z,101404.38
2022-10-11T20:02:17.818Z,101410.75
2022-10-11T20:04:52.451Z,101365.78
2022-10-11T20:07:20.585Z,101409.06
2022-10-11T20:09:48.007Z,101401.31
2022-10-11T20:12:15.456Z,101409.16
2022-10-11T20:14:44.202Z,101396.91
2022-10-11T20:17:11.639Z,101408.47
2022-10-11T20:19:39.101Z,101404.03
2022-10-11T20:22:06.600Z,101400.47
2022-10-11T20:24:34.544Z,101396.03
2022-10-11T20:27:03.322Z,101396.34
2022-10-11T20:29:30.762Z,101398.03
2022-10-11T20:31:59.732Z,101406.94
2022-10-11T20:34:28.096Z,101403.34
2022-10-11T20:36:55.578Z,101384.69
2022-10-11T20:39:23.573Z,101408.91
2022-10-11T20:41:51.056Z,101401.81
2022-10-11T20:44:18.490Z,101407.16
2022-10-11T20:46:45.910Z,101409.06
2022-10-11T20:49:14.661Z,101410.91
2022-10-11T20:51:42.510Z,101293.56
2022-10-11T20:54:10.049Z,101378.31
2022-10-11T20:56:37.538Z,101404.22
2022-10-11T20:59:05.001Z,101418.22
2022-10-11T21:01:33.240Z,101406.81
2022-10-11T21:04:01.164Z,101403.34
2022-10-11T21:06:30.300Z,101405.13
2022-10-11T21:08:58.758Z,101371.59
2022-10-11T21:11:26.475Z,101400.81
2022-10-11T21:13:55.424Z,101405.28
2022-10-11T21:16:22.883Z,101403.56
2022-10-11T21:18:51.594Z,101320.84
2022-10-11T21:21:19.020Z,101397.44
2022-10-11T21:23:47.787Z,101399.41
2022-10-11T21:26:16.651Z,101375.38
2022-10-11T21:28:45.118Z,101397.94
2022-10-11T21:31:13.564Z,101407.59
2022-10-11T21:33:41.205Z,101402.44
2022-10-11T21:36:09.790Z,101401.56
2022-10-11T21:38:37.360Z,101405.22
2022-10-11T21:41:06.285Z,101402.78
2022-10-11T21:43:35.016Z,101404.50
2022-10-11T21:46:09.260Z,101400.97
2022-10-11T21:48:36.689Z,101402.88
2022-10-11T21:51:04.191Z,101397.38
2022-10-11T21:53:31.701Z,101322.06
2022-10-11T21:55:59.139Z,101395.53
2022-10-11T21:58:27.897Z,101408.63
2022-10-11T22:00:55.460Z,101411.28
2022-10-11T22:03:22.942Z,101409.59
2022-10-11T22:05:50.371Z,101401.00
2022-10-11T22:08:17.807Z,101400.69
2022-10-11T22:10:45.470Z,101345.78
2022-10-11T22:13:12.943Z,101401.13
2022-10-11T22:15:41.889Z,101397.66
2022-10-11T22:18:09.553Z,101389.81
2022-10-11T22:20:37.137Z,101398.69
2022-10-11T22:23:04.758Z,101357.31
2022-10-11T22:25:32.382Z,101403.41
2022-10-11T22:28:00.011Z,101395.56
2022-10-11T22:30:27.484Z,101393.06
2022-10-11T22:32:56.512Z,101391.41
2022-10-11T22:35:24.047Z,101344.00
2022-10-11T22:37:51.519Z,101392.53
2022-10-11T22:40:19.147Z,101401.66
2022-10-11T22:42:46.691Z,101397.00
2022-10-11T22:45:14.166Z,101311.47
2022-10-11T22:47:41.636Z,101383.78
2022-10-11T22:50:10.679Z,101299.44
2022-10-11T22:52:38.218Z,101386.56
2022-10-11T22:55:06.358Z,101388.50
2022-10-11T22:57:34.120Z,101395.53
2022-10-11T23:00:01.782Z,101388.50
2022-10-11T23:02:29.252Z,101388.56
2022-10-11T23:04:58.238Z,101393.88
2022-10-11T23:07:27.021Z,101393.16
2022-10-11T23:09:54.530Z,101393.22
2022-10-11T23:12:22.077Z,101393.22
2022-10-11T23:14:49.544Z,101399.63
2022-10-11T23:17:16.991Z,101397.03
2022-10-11T23:19:44.453Z,101395.25
2022-10-11T23:22:11.954Z,101396.09
2022-10-11T23:24:40.730Z,101400.56
2022-10-11T23:27:08.223Z,101404.13
2022-10-11T23:29:35.712Z,101290.16
2022-10-11T23:32:03.163Z,101398.06
2022-10-11T23:34:30.646Z,101403.47
2022-10-11T23:36:58.109Z,101386.16
2022-10-11T23:39:25.558Z,101408.03
2022-10-11T23:41:54.321Z,101407.22
2022-10-11T23:44:21.815Z,101403.78
2022-10-11T23:46:49.254Z,101403.84
2022-10-11T23:49:16.717Z,101402.03
2022-10-11T23:51:44.182Z,101397.94
2022-10-11T23:54:11.861Z,101408.44
2022-10-11T23:56:39.314Z,101416.47
2022-10-11T23:59:08.099Z,101405.91
